Airfield :







YOU CAN JOIN US ON...

 
LOGIN :

Register | Disclaimer

   EN    FR    IT 

 









Legend :    VFR   Marginal VFR   IFR   Intensive IFR   Very Intensive IFR
Visi :
Ceiling :
>= 8 km
>= 3000ft
5 to 8 km
1000 to 3000 ft
1500m to 5 km
500 to 1000 ft
800 to 1500m
200 to 500 ft
< 800m
< 200 ft
Symbols :   Thunderstorms  Fog  Heavy snow  Heavy precipitations  Wind > 20 kt






- Airport Elevation : 827 ft


KDDH - William H. Morse State

CURRENT METAR :
  • 161854Z AUTO 13011G22KT 10SM OVC036 14/07 A2977 RMK AO2 SLP085 T01440067

EXPIRED METARs :
  • 161754Z AUTO 14012KT 10SM SCT039 15/07 A2980 RMK AO2 SLP093 T01500072 10156 20100 58028
  • 161654Z AUTO 14016G23KT 10SM CLR 16/07 A2983 RMK AO2 SLP102 T01560067 $

TAF N/A



MET'MAP, your aeronautical weather chart ! - Copyright ORBIFLY December 2007 - Disclaimer

ORBIFLY MET'MAP TEAM :

Programming & Development : Alexandra Zaïnal
Concept & Development : Baudouin d'Aumeries
Co-Development & Prog : Marc-Olivier Méhu
Technical & hardware support : Manuel Goepfert

Contact : metmap@orbifly.com




SOURCES & CREDITS :

   NOAA